createdAt,value
2018-05-16T00:02:13.347Z,41.47
2018-05-16T00:04:41.470Z,41.83
2018-05-16T00:07:09.570Z,40.87
2018-05-16T00:09:37.673Z,40.80
2018-05-16T00:12:05.788Z,42.57
2018-05-16T00:14:33.904Z,39.00
2018-05-16T00:17:02.801Z,41.70
2018-05-16T00:19:36.416Z,39.77
2018-05-16T00:22:04.511Z,38.00
2018-05-16T00:24:32.944Z,38.33
2018-05-16T00:27:01.325Z,37.73
2018-05-16T00:29:29.416Z,40.00
2018-05-16T00:31:57.526Z,37.63
2018-05-16T00:34:25.665Z,40.47
2018-05-16T00:36:53.799Z,40.80
2018-05-16T00:39:22.144Z,40.27
2018-05-16T00:41:50.255Z,38.90
2018-05-16T00:44:18.485Z,39.90
2018-05-16T00:46:46.624Z,38.70
2018-05-16T00:49:15.257Z,37.87
2018-05-16T00:51:43.364Z,39.03
2018-05-16T00:54:11.475Z,39.93
2018-05-16T00:56:39.600Z,41.30
2018-05-16T00:59:07.696Z,41.57
2018-05-16T01:01:35.792Z,41.67
2018-05-16T01:04:04.213Z,43.60
2018-05-16T01:06:32.313Z,41.97
2018-05-16T01:09:00.424Z,44.27
2018-05-16T01:11:28.553Z,45.13
2018-05-16T01:13:57.562Z,44.27
2018-05-16T01:16:25.700Z,44.50
2018-05-16T01:18:54.788Z,44.10
2018-05-16T01:21:23.188Z,43.07
2018-05-16T01:23:51.278Z,41.73
2018-05-16T01:26:19.392Z,43.17
2018-05-16T01:28:47.489Z,41.60
2018-05-16T01:31:16.101Z,44.37
2018-05-16T01:33:44.220Z,43.73
2018-05-16T01:36:12.320Z,42.77
2018-05-16T01:38:40.444Z,43.47
2018-05-16T01:41:08.546Z,40.97
2018-05-16T01:43:36.654Z,42.67
2018-05-16T01:46:05.233Z,42.90
2018-05-16T01:48:33.324Z,40.53
2018-05-16T01:51:01.701Z,42.03
2018-05-16T01:53:30.077Z,41.37
2018-05-16T01:55:58.272Z,39.30
2018-05-16T01:58:26.296Z,39.77
2018-05-16T02:00:54.469Z,40.60
2018-05-16T02:03:22.568Z,38.77
2018-05-16T02:05:51.580Z,39.97
2018-05-16T02:08:19.729Z,38.23
2018-05-16T02:10:47.826Z,37.07
2018-05-16T02:13:16.747Z,38.17
2018-05-16T02:15:45.200Z,36.37
2018-05-16T02:18:13.305Z,35.37
2018-05-16T02:20:41.874Z,38.03
2018-05-16T02:23:09.968Z,36.43
2018-05-16T02:35:23.092Z,34.10
2018-05-16T02:37:52.146Z,34.43
2018-05-16T02:40:21.125Z,34.83
2018-05-16T02:42:49.241Z,32.77
2018-05-16T02:45:17.981Z,34.70
2018-05-16T02:47:46.087Z,33.53
2018-05-16T02:50:14.217Z,35.37
2018-05-16T02:52:42.314Z,34.23
2018-05-16T02:55:10.416Z,34.00
2018-05-16T02:57:38.561Z,32.33
2018-05-16T03:00:06.677Z,32.97
2018-05-16T03:02:34.777Z,33.20
2018-05-16T03:05:02.902Z,30.40
2018-05-16T03:07:31.303Z,29.63
2018-05-16T03:09:59.408Z,29.33
2018-05-16T03:12:27.557Z,30.40
2018-05-16T03:14:55.689Z,29.20
2018-05-16T03:17:23.810Z,27.63
2018-05-16T03:19:51.941Z,29.70
2018-05-16T03:22:20.050Z,27.43
2018-05-16T03:24:48.218Z,27.40
2018-05-16T03:27:21.271Z,26.50
2018-05-16T03:29:49.364Z,24.93
2018-05-16T03:32:17.547Z,25.07
2018-05-16T03:34:45.662Z,24.37
2018-05-16T03:37:13.757Z,23.67
2018-05-16T03:39:41.861Z,24.73
2018-05-16T03:42:09.977Z,25.20
2018-05-16T03:44:38.074Z,23.80
2018-05-16T03:47:06.189Z,24.93
2018-05-16T03:49:35.081Z,24.20
2018-05-16T03:52:03.254Z,27.47
2018-05-16T03:54:31.375Z,24.67
2018-05-16T03:56:59.492Z,25.27
2018-05-16T03:59:39.319Z,26.73
2018-05-16T04:02:19.209Z,27.67
2018-05-16T04:04:47.768Z,28.57
2018-05-16T04:07:15.859Z,28.40
2018-05-16T04:09:43.957Z,29.53
2018-05-16T04:12:12.085Z,28.87
2018-05-16T04:14:40.525Z,30.47
2018-05-16T04:17:08.643Z,29.73
2018-05-16T04:19:36.789Z,29.70
2018-05-16T04:22:05.163Z,29.47
2018-05-16T04:24:33.286Z,29.37
2018-05-16T04:27:01.433Z,30.47
2018-05-16T04:29:29.657Z,29.50
2018-05-16T04:31:57.794Z,28.97
2018-05-16T04:34:26.582Z,28.03
2018-05-16T04:36:54.999Z,29.00
2018-05-16T04:39:23.786Z,28.07
2018-05-16T04:41:52.002Z,26.50
2018-05-16T04:44:20.595Z,27.27
2018-05-16T04:46:48.693Z,26.43
2018-05-16T04:49:16.825Z,22.80
2018-05-16T04:51:44.923Z,23.57
2018-05-16T04:54:13.340Z,22.57
2018-05-16T04:56:41.477Z,22.10
2018-05-16T04:59:10.597Z,22.00
2018-05-16T05:01:38.713Z,20.63
2018-05-16T05:04:07.382Z,19.57
2018-05-16T05:06:35.472Z,18.73
2018-05-16T05:09:03.580Z,17.77
2018-05-16T05:11:31.705Z,18.07
2018-05-16T05:13:59.805Z,17.07
2018-05-16T05:16:28.565Z,16.97
2018-05-16T05:18:56.673Z,17.53
2018-05-16T05:21:24.779Z,16.97
2018-05-16T05:23:52.909Z,17.13
2018-05-16T05:26:22.038Z,17.47
2018-05-16T05:28:50.129Z,16.93
2018-05-16T05:31:18.243Z,16.67
2018-05-16T05:33:46.989Z,15.30
2018-05-16T05:36:15.206Z,15.00
2018-05-16T05:38:43.257Z,15.33
2018-05-16T05:41:11.378Z,15.33
2018-05-16T05:43:39.479Z,15.83
2018-05-16T05:46:07.845Z,14.10
2018-05-16T05:48:35.965Z,14.77
2018-05-16T06:04:04.101Z,12.67
2018-05-16T06:06:32.223Z,14.27
2018-05-16T06:09:00.334Z,12.83
2018-05-16T06:11:28.446Z,14.63
2018-05-16T06:13:56.569Z,13.53
2018-05-16T06:16:25.638Z,14.43
2018-05-16T06:18:54.358Z,13.50
2018-05-16T06:21:22.488Z,11.90
2018-05-16T06:23:50.585Z,12.63
2018-05-16T06:26:18.733Z,12.17
2018-05-16T06:28:46.847Z,13.20
2018-05-16T06:31:15.868Z,12.53
2018-05-16T06:33:43.989Z,12.97
2018-05-16T06:36:12.096Z,13.03
2018-05-16T06:38:40.209Z,13.80
2018-05-16T06:41:08.389Z,13.63
2018-05-16T06:43:36.481Z,13.77
2018-05-16T06:46:04.602Z,12.97
2018-05-16T06:48:32.717Z,14.07
2018-05-16T06:51:01.571Z,13.77
2018-05-16T06:53:29.910Z,12.70
2018-05-16T06:55:58.057Z,12.90
2018-05-16T06:58:26.188Z,13.53
2018-05-16T07:00:54.303Z,13.73
2018-05-16T07:03:22.890Z,14.23
2018-05-16T07:05:50.990Z,13.97
2018-05-16T07:08:19.109Z,14.60
2018-05-16T07:10:47.228Z,14.47
2018-05-16T07:13:20.284Z,14.40
2018-05-16T07:15:48.399Z,14.03
2018-05-16T07:18:16.504Z,14.80
2018-05-16T07:23:18.602Z,15.07
2018-05-16T07:25:46.711Z,14.27
2018-05-16T07:28:14.904Z,14.87
2018-05-16T07:30:43.854Z,16.13
2018-05-16T07:33:11.965Z,14.67
2018-05-16T07:35:40.079Z,15.00
2018-05-16T07:38:08.227Z,15.60
2018-05-16T07:40:37.135Z,15.60
2018-05-16T07:43:05.241Z,16.23
2018-05-16T07:45:33.355Z,16.07
2018-05-16T07:48:01.457Z,16.57
2018-05-16T07:50:29.574Z,15.77
2018-05-16T07:52:57.707Z,16.47
2018-05-16T07:55:25.833Z,17.17
2018-05-16T07:57:54.354Z,18.50
2018-05-16T08:00:22.457Z,16.27
2018-05-16T08:02:50.557Z,16.37
2018-05-16T08:05:18.676Z,17.47
2018-05-16T08:07:47.040Z,17.23
2018-05-16T08:10:15.152Z,17.90
2018-05-16T08:12:43.265Z,17.43
2018-05-16T08:15:12.336Z,19.23
2018-05-16T08:17:40.439Z,18.47
2018-05-16T08:20:08.546Z,17.83
2018-05-16T08:22:37.697Z,19.47
2018-05-16T08:25:05.793Z,18.63
2018-05-16T08:27:33.908Z,19.30
2018-05-16T08:30:02.342Z,19.03
2018-05-16T08:32:30.429Z,17.70
2018-05-16T08:34:58.527Z,17.77
2018-05-16T08:37:26.723Z,17.87
2018-05-16T08:39:54.930Z,18.13
2018-05-16T08:42:23.014Z,17.40
2018-05-16T08:44:51.658Z,17.97
2018-05-16T08:47:19.805Z,18.50
2018-05-16T08:49:48.386Z,17.17
2018-05-16T08:52:16.485Z,17.53
2018-05-16T08:54:44.638Z,17.33
2018-05-16T08:57:12.762Z,18.73
2018-05-16T08:59:40.895Z,17.03
2018-05-16T09:02:09.022Z,16.87
2018-05-16T09:04:37.487Z,17.00
2018-05-16T09:07:05.594Z,17.13
2018-05-16T09:09:39.364Z,16.13
2018-05-16T09:12:13.045Z,17.37
2018-05-16T09:14:41.195Z,15.90
2018-05-16T09:17:09.587Z,16.23
2018-05-16T09:19:37.686Z,15.63
2018-05-16T09:22:06.726Z,16.33
2018-05-16T09:24:34.820Z,15.80
2018-05-16T09:27:02.945Z,14.60
2018-05-16T09:29:31.067Z,15.80
2018-05-16T09:31:59.189Z,15.40
2018-05-16T09:34:27.304Z,14.93
2018-05-16T09:36:56.192Z,12.77
2018-05-16T09:39:24.306Z,13.53
2018-05-16T09:41:52.404Z,13.33
2018-05-16T09:44:20.550Z,11.60
2018-05-16T09:46:48.653Z,12.33
2018-05-16T09:49:16.873Z,11.33
2018-05-16T09:51:44.968Z,12.57
2018-05-16T09:54:13.085Z,12.97
2018-05-16T09:56:41.197Z,12.77
2018-05-16T09:59:09.316Z,12.73
2018-05-16T10:01:37.941Z,14.03
2018-05-16T10:04:06.078Z,13.17
2018-05-16T10:06:34.179Z,13.30
2018-05-16T10:09:08.720Z,13.87
2018-05-16T10:11:42.469Z,13.23
2018-05-16T10:14:10.578Z,14.50
2018-05-16T10:16:39.674Z,13.37
2018-05-16T10:19:07.791Z,12.90
2018-05-16T10:21:35.944Z,13.13
2018-05-16T10:24:04.044Z,12.07
2018-05-16T10:26:32.368Z,13.60
2018-05-16T10:29:00.474Z,13.90
2018-05-16T10:31:28.600Z,13.80
2018-05-16T10:33:56.760Z,12.73
2018-05-16T10:36:24.912Z,13.37
2018-05-16T10:38:53.017Z,14.77
2018-05-16T10:41:21.765Z,14.30
2018-05-16T10:43:49.868Z,14.33
2018-05-16T10:46:17.969Z,14.50
2018-05-16T10:48:46.938Z,14.00
2018-05-16T10:51:15.052Z,14.47
2018-05-16T10:53:43.162Z,14.03
2018-05-16T10:56:11.632Z,14.20
2018-05-16T10:58:39.740Z,14.83
2018-05-16T11:01:07.908Z,14.20
2018-05-16T11:03:36.055Z,14.03
2018-05-16T11:06:05.117Z,14.37
2018-05-16T11:08:33.176Z,14.37
2018-05-16T11:11:06.909Z,14.13
2018-05-16T11:13:35.818Z,13.80
2018-05-16T11:16:04.006Z,14.10
2018-05-16T11:18:32.130Z,13.77
2018-05-16T11:21:00.989Z,13.70
2018-05-16T11:23:29.708Z,12.27
2018-05-16T11:25:57.821Z,11.10
2018-05-16T11:28:26.014Z,11.17
2018-05-16T11:30:54.167Z,11.57
2018-05-16T11:33:22.252Z,11.67
2018-05-16T11:35:51.886Z,10.40
2018-05-16T11:38:19.994Z,10.87
2018-05-16T11:40:48.102Z,11.13
2018-05-16T11:43:16.212Z,12.20
2018-05-16T11:45:45.209Z,10.67
2018-05-16T11:48:13.325Z,10.63
2018-05-16T11:50:42.381Z,10.77
2018-05-16T11:53:16.018Z,11.30
2018-05-16T11:55:44.131Z,12.87
2018-05-16T11:58:12.476Z,12.13
2018-05-16T12:00:40.579Z,10.93
2018-05-16T12:03:08.706Z,11.47
2018-05-16T12:05:37.617Z,11.37
2018-05-16T12:08:05.724Z,11.17
2018-05-16T12:10:33.849Z,11.20
2018-05-16T12:13:01.944Z,11.77
2018-05-16T12:15:30.067Z,13.20
2018-05-16T12:17:58.178Z,11.50
2018-05-16T12:20:27.260Z,11.70
2018-05-16T12:22:55.371Z,11.67
2018-05-16T12:25:23.493Z,11.13
2018-05-16T12:27:51.606Z,11.97
2018-05-16T12:30:19.727Z,11.33
2018-05-16T12:32:47.833Z,10.70
2018-05-16T12:35:16.268Z,10.17
2018-05-16T12:37:44.377Z,11.40
2018-05-16T12:40:13.051Z,10.80
2018-05-16T12:42:52.785Z,10.10
2018-05-16T12:45:20.913Z,8.97
2018-05-16T12:47:49.013Z,9.60
2018-05-16T12:50:17.159Z,8.60
2018-05-16T12:52:45.575Z,9.27
2018-05-16T12:55:14.566Z,8.83
2018-05-16T12:57:42.675Z,8.70
2018-05-16T13:00:10.869Z,8.80
2018-05-16T13:02:38.979Z,10.10
2018-05-16T13:05:07.699Z,8.60
2018-05-16T13:07:36.050Z,8.57
2018-05-16T13:10:04.153Z,8.90
2018-05-16T13:12:32.250Z,9.00
2018-05-16T13:15:06.090Z,7.70
2018-05-16T13:17:40.680Z,7.47
2018-05-16T13:20:09.405Z,8.23
2018-05-16T13:22:37.501Z,8.07
2018-05-16T13:25:05.914Z,8.30
2018-05-16T13:27:34.170Z,8.37
2018-05-16T13:30:02.594Z,8.30
2018-05-16T13:32:32.517Z,6.73
2018-05-16T13:35:00.660Z,7.13
2018-05-16T13:37:28.761Z,7.90
2018-05-16T13:49:42.748Z,7.50
2018-05-16T13:52:10.844Z,7.10
2018-05-16T13:54:38.956Z,6.90
2018-05-16T13:57:07.073Z,6.60
2018-05-16T13:59:35.246Z,6.57
2018-05-16T14:02:03.336Z,7.97
2018-05-16T14:04:31.457Z,8.37
2018-05-16T14:06:59.568Z,7.50
2018-05-16T14:09:27.919Z,7.87
2018-05-16T14:11:56.265Z,8.43
2018-05-16T14:14:24.399Z,7.97
2018-05-16T14:16:52.479Z,8.47
2018-05-16T14:19:20.824Z,8.83
2018-05-16T14:21:49.980Z,7.93
2018-05-16T14:24:18.079Z,8.47
2018-05-16T14:26:46.166Z,8.50
2018-05-16T14:29:14.269Z,9.50
2018-05-16T14:31:42.386Z,9.33
2018-05-16T14:34:10.510Z,9.63
2018-05-16T14:36:38.613Z,9.87
2018-05-16T14:39:07.374Z,9.60
2018-05-16T14:41:35.510Z,10.37
2018-05-16T14:44:03.829Z,9.30
2018-05-16T14:46:31.924Z,9.93
2018-05-16T14:49:00.044Z,11.07
2018-05-16T14:51:28.181Z,8.97
2018-05-16T14:53:56.305Z,10.87
2018-05-16T15:09:25.449Z,9.93
2018-05-16T15:11:53.557Z,8.67
2018-05-16T15:14:22.000Z,9.33
2018-05-16T15:16:51.001Z,10.27
2018-05-16T15:19:19.930Z,9.10
2018-05-16T15:21:48.034Z,10.20
2018-05-16T15:24:16.135Z,8.70
2018-05-16T15:26:44.265Z,10.33
2018-05-16T15:29:13.369Z,9.30
2018-05-16T15:31:41.483Z,9.37
2018-05-16T15:34:09.573Z,10.00
2018-05-16T15:36:37.687Z,8.87
2018-05-16T15:39:06.577Z,8.73
2018-05-16T15:41:34.668Z,7.80
2018-05-16T15:44:02.776Z,9.80
2018-05-16T15:46:31.916Z,8.47
2018-05-16T15:49:00.041Z,9.20
2018-05-16T15:51:28.146Z,10.20
2018-05-16T15:53:57.250Z,9.23
2018-05-16T15:56:25.368Z,9.10
2018-05-16T15:58:53.519Z,8.60
2018-05-16T16:01:21.597Z,8.93
2018-05-16T16:03:49.719Z,10.50
2018-05-16T16:06:17.869Z,10.63
2018-05-16T16:08:45.997Z,10.13
2018-05-16T16:11:14.328Z,10.97
2018-05-16T16:13:42.452Z,9.70
2018-05-16T16:16:10.589Z,9.47
2018-05-16T16:18:38.686Z,10.40
2018-05-16T16:21:07.064Z,9.70
2018-05-16T16:23:35.179Z,9.83
2018-05-16T16:26:03.290Z,9.27
2018-05-16T16:28:31.519Z,9.50
2018-05-16T16:30:59.605Z,11.17
2018-05-16T16:33:27.718Z,9.83
2018-05-16T16:35:55.837Z,9.67
2018-05-16T16:38:23.937Z,9.53
2018-05-16T16:40:52.426Z,9.53
2018-05-16T16:43:20.529Z,9.60
2018-05-16T16:45:48.690Z,9.43
2018-05-16T16:48:16.765Z,8.77
2018-05-16T16:50:44.887Z,10.50
2018-05-16T16:53:12.996Z,7.70
2018-05-16T16:55:41.176Z,10.60
2018-05-16T16:58:09.285Z,10.63
2018-05-16T17:00:37.393Z,9.63
2018-05-16T17:03:05.491Z,10.70
2018-05-16T17:05:33.609Z,10.50
2018-05-16T17:08:01.829Z,9.60
2018-05-16T17:10:31.059Z,8.37
2018-05-16T17:12:59.709Z,9.03
2018-05-16T17:15:27.805Z,9.37
2018-05-16T17:17:55.905Z,9.93
2018-05-16T17:20:24.037Z,10.10
2018-05-16T17:22:54.512Z,9.07
2018-05-16T17:25:22.652Z,8.00
2018-05-16T17:27:51.630Z,8.53
2018-05-16T17:30:20.128Z,8.67
2018-05-16T17:32:48.497Z,9.67
2018-05-16T17:35:16.825Z,9.43
2018-05-16T17:37:44.974Z,8.97
2018-05-16T17:40:13.153Z,9.77
2018-05-16T17:42:42.156Z,9.53
2018-05-16T17:45:10.567Z,8.93
2018-05-16T17:47:38.687Z,7.10
2018-05-16T17:50:06.790Z,8.70
2018-05-16T17:52:35.782Z,9.30
2018-05-16T17:55:04.876Z,9.20
2018-05-16T17:57:33.787Z,8.77
2018-05-16T18:00:01.912Z,8.77
2018-05-16T18:02:31.523Z,9.83
2018-05-16T18:04:59.639Z,8.20
2018-05-16T18:07:27.739Z,10.07
2018-05-16T18:10:01.453Z,10.07
2018-05-16T18:12:29.587Z,9.50
2018-05-16T18:15:13.114Z,6.23
2018-05-16T18:17:42.139Z,7.80
2018-05-16T18:20:10.241Z,9.93
2018-05-16T18:22:38.452Z,8.87
2018-05-16T18:25:06.553Z,9.03
2018-05-16T18:27:35.402Z,7.00
2018-05-16T18:30:03.910Z,8.23
2018-05-16T18:32:32.016Z,8.67
2018-05-16T18:35:00.122Z,8.03
2018-05-16T18:37:28.991Z,7.23
2018-05-16T18:39:57.121Z,7.83
2018-05-16T18:42:25.302Z,7.07
2018-05-16T18:44:53.377Z,7.50
2018-05-16T18:47:22.167Z,8.07
2018-05-16T18:49:50.306Z,7.63
2018-05-16T18:52:18.441Z,6.77
2018-05-16T18:54:46.559Z,7.03
2018-05-16T18:57:14.709Z,6.67
2018-05-16T18:59:42.857Z,6.40
2018-05-16T19:02:10.925Z,7.30
2018-05-16T19:04:39.016Z,6.90
2018-05-16T19:07:07.161Z,6.90
2018-05-16T19:09:35.253Z,6.27
2018-05-16T19:12:03.381Z,6.83
2018-05-16T19:14:32.367Z,6.57
2018-05-16T19:17:05.388Z,7.00
2018-05-16T19:19:33.561Z,6.90
2018-05-16T19:22:01.656Z,6.90
2018-05-16T19:24:29.760Z,7.00
2018-05-16T19:26:57.911Z,7.30
2018-05-16T19:29:26.393Z,7.57
2018-05-16T19:31:54.876Z,6.33
2018-05-16T19:34:22.995Z,6.93
2018-05-16T19:36:51.165Z,7.93
2018-05-16T19:39:19.258Z,6.40
2018-05-16T19:41:47.575Z,6.30
2018-05-16T19:44:15.679Z,6.20
2018-05-16T19:46:44.085Z,7.23
2018-05-16T19:49:12.192Z,5.73
2018-05-16T19:51:40.299Z,7.00
2018-05-16T19:54:08.495Z,7.87
2018-05-16T19:56:36.594Z,6.03
2018-05-16T19:59:04.717Z,7.50
2018-05-16T20:01:33.145Z,8.00
2018-05-16T20:04:01.773Z,7.47
2018-05-16T20:06:35.523Z,7.43
2018-05-16T20:09:04.635Z,5.73
2018-05-16T20:11:33.014Z,6.03
2018-05-16T20:14:01.104Z,6.00
2018-05-16T20:16:29.414Z,6.87
2018-05-16T20:18:57.559Z,6.63
2018-05-16T20:21:25.673Z,7.07
2018-05-16T20:23:53.795Z,7.57
2018-05-16T20:26:21.891Z,5.33
2018-05-16T20:28:49.980Z,6.63
2018-05-16T20:31:18.097Z,6.30
2018-05-16T20:33:46.189Z,6.33
2018-05-16T20:36:14.293Z,6.47
2018-05-16T20:38:42.401Z,5.93
2018-05-16T20:41:10.541Z,5.13
2018-05-16T20:43:38.673Z,5.33
2018-05-16T20:46:06.766Z,4.50
2018-05-16T20:48:34.873Z,5.47
2018-05-16T20:51:03.644Z,5.03
2018-05-16T20:53:31.745Z,4.70
2018-05-16T20:55:59.841Z,6.00
2018-05-16T20:58:28.457Z,4.83
2018-05-16T21:00:56.581Z,5.50
2018-05-16T21:03:24.701Z,4.77
2018-05-16T21:05:58.389Z,5.83
2018-05-16T21:08:32.053Z,6.20
2018-05-16T21:11:00.177Z,5.57
2018-05-16T21:13:28.306Z,5.47
2018-05-16T21:15:56.405Z,5.30
2018-05-16T21:18:24.615Z,5.57
2018-05-16T21:20:52.710Z,4.83
2018-05-16T21:23:20.805Z,4.73
2018-05-16T21:25:48.943Z,5.30
2018-05-16T21:28:17.061Z,5.17
2018-05-16T21:30:50.169Z,4.90
2018-05-16T21:33:18.571Z,5.40
2018-05-16T21:35:46.664Z,4.87
2018-05-16T21:38:14.807Z,5.97
2018-05-16T21:40:43.186Z,3.97
2018-05-16T21:43:11.265Z,3.77
2018-05-16T21:45:39.398Z,5.30
2018-05-16T21:48:08.230Z,5.40
2018-05-16T21:50:36.365Z,4.80
2018-05-16T21:53:04.476Z,5.10
2018-05-16T21:55:32.575Z,4.93
2018-05-16T22:11:00.682Z,5.40
2018-05-16T22:13:28.812Z,6.23
2018-05-16T22:15:56.928Z,5.93
2018-05-16T22:18:25.030Z,6.40
2018-05-16T22:20:53.466Z,4.30
2018-05-16T22:23:21.580Z,4.33
2018-05-16T22:25:49.685Z,4.23
2018-05-16T22:28:18.526Z,4.20
2018-05-16T22:30:52.229Z,5.20
2018-05-16T22:33:25.860Z,5.63
2018-05-16T22:35:59.541Z,5.27
2018-05-16T22:38:33.209Z,4.93
2018-05-16T22:41:06.927Z,5.17
2018-05-16T22:43:40.582Z,5.30
2018-05-16T22:46:08.672Z,4.43
2018-05-16T22:48:36.861Z,4.73
2018-05-16T22:51:04.964Z,5.83
2018-05-16T22:53:33.939Z,4.87
2018-05-16T22:56:02.076Z,4.50
2018-05-16T22:58:30.188Z,4.10
2018-05-16T23:00:58.366Z,5.37
2018-05-16T23:03:27.088Z,5.27
2018-05-16T23:05:55.180Z,4.37
2018-05-16T23:08:23.296Z,5.40
2018-05-16T23:10:51.809Z,5.27
2018-05-16T23:13:19.914Z,4.73
2018-05-16T23:15:48.030Z,4.43
2018-05-16T23:18:16.134Z,4.33
2018-05-16T23:20:45.257Z,4.63
2018-05-16T23:23:13.377Z,4.90
2018-05-16T23:25:41.476Z,3.73
2018-05-16T23:28:09.624Z,4.37
2018-05-16T23:30:37.713Z,5.53
2018-05-16T23:33:05.812Z,4.57
2018-05-16T23:35:33.922Z,5.73
2018-05-16T23:38:02.029Z,4.10
2018-05-16T23:40:30.152Z,4.50
2018-05-16T23:55:58.284Z,4.43
2018-05-16T23:58:26.373Z,5.07
